This is the latest recevied weather packets stored in our database for station/object WC4PEM-6. If no packets are shown the sender has not sent any weather packets the latest 10 day(s).
| Time | Temp. | Humidity | Pressure | Rain* | Wind** | Luminosity | Snow |
|---|---|---|---|---|---|---|---|
| 1777302326 | 27.22° C | 67% | 1016.2 hPa | 0 mm | - | - | - |
| 1777302122 | 27.22° C | 67% | 1016.1 hPa | 0 mm | - | - | - |
| 1777302100 | 26.67° C | 70% | 1016.1 hPa | 0 mm | - | - | - |
| 1777302030 | 26.67° C | 70% | 1016.1 hPa | 0 mm | - | - | - |
| 1777302027 | 27.22° C | 67% | 1016.1 hPa | 0 mm | - | - | - |
| 1777301727 | 26.67° C | 70% | 1016.1 hPa | 0 mm | - | - | - |
| 1777301426 | 26.67° C | 70% | 1016.1 hPa | 0 mm | - | - | - |
| 1777301127 | 26.67° C | 71% | 1016.1 hPa | 0 mm | - | - | - |
| 1777300899 | 26.11° C | 71% | 1016 hPa | 0 mm | - | - | - |
| 1777300827 | 26.11° C | 71% | 1016 hPa | 0 mm | - | - | - |
| 1777300698 | 26.11° C | 72% | 1016.1 hPa | 0 mm | - | - | - |
| 1777300527 | 26.11° C | 72% | 1016.1 hPa | 0 mm | - | - | - |
| 1777300402 | 26.11° C | 72% | 1016.1 hPa | 0 mm | - | - | - |
| 1777300227 | 26.11° C | 72% | 1016.1 hPa | 0 mm | - | - | - |
| 1777300107 | 26.11° C | 74% | 1016 hPa | 0 mm | - | - | - |
| 1777299980 | 26.11° C | 75% | 1016 hPa | 0 mm | - | - | - |
| 1777299927 | 26.11° C | 74% | 1016 hPa | 0 mm | - | - | - |
| 1777299627 | 26.11° C | 75% | 1016 hPa | 0 mm | - | - | - |
| 1777299512 | 25.56° C | 76% | 1016 hPa | 0 mm | - | - | - |
| 1777299501 | 25.56° C | 77% | 1015.9 hPa | 0 mm | - | - | - |
| 1777299327 | 25.56° C | 76% | 1016 hPa | 0 mm | - | - | - |
| 1777299167 | 25.56° C | 77% | 1015.9 hPa | 0 mm | - | - | - |
| 1777299027 | 25.56° C | 77% | 1015.9 hPa | 0 mm | - | - | - |
| 1777298999 | 25° C | 78% | 1015.8 hPa | 0 mm | - | - | - |
| 1777298893 | 25° C | 78% | 1015.9 hPa | 0 mm | - | - | - |
* Rain latest hour (hover to see other rain measurements)
** Current wind speed in m/s (hover to see current wind gust speed)